sensor_id;sensor_type;location;lat;lon;timestamp;temperature;humidity
80254;DHT22;69563;37.974;23.708;2023-09-07T00:00:02;26.10;59.20
80254;DHT22;69563;37.974;23.708;2023-09-07T00:02:31;26.10;59.20
80254;DHT22;69563;37.974;23.708;2023-09-07T00:04:57;26.10;59.20
80254;DHT22;69563;37.974;23.708;2023-09-07T00:07:23;26.10;59.20
80254;DHT22;69563;37.974;23.708;2023-09-07T00:09:49;26.10;59.10
80254;DHT22;69563;37.974;23.708;2023-09-07T00:12:14;26.10;59.10
80254;DHT22;69563;37.974;23.708;2023-09-07T00:14:40;26.10;59.10
80254;DHT22;69563;37.974;23.708;2023-09-07T00:17:06;26.10;59.00
80254;DHT22;69563;37.974;23.708;2023-09-07T00:19:32;26.10;59.10
80254;DHT22;69563;37.974;23.708;2023-09-07T00:22:03;26.10;59.00
80254;DHT22;69563;37.974;23.708;2023-09-07T00:24:29;26.10;59.10
80254;DHT22;69563;37.974;23.708;2023-09-07T00:26:55;26.10;59.00
80254;DHT22;69563;37.974;23.708;2023-09-07T00:29:21;26.10;59.10
80254;DHT22;69563;37.974;23.708;2023-09-07T00:31:47;26.10;59.10
80254;DHT22;69563;37.974;23.708;2023-09-07T00:34:13;26.10;59.00
80254;DHT22;69563;37.974;23.708;2023-09-07T00:36:39;26.00;58.90
80254;DHT22;69563;37.974;23.708;2023-09-07T00:39:05;26.00;58.90
80254;DHT22;69563;37.974;23.708;2023-09-07T00:41:31;26.10;58.90
80254;DHT22;69563;37.974;23.708;2023-09-07T00:43:56;26.10;58.90
80254;DHT22;69563;37.974;23.708;2023-09-07T00:46:22;26.10;58.90
80254;DHT22;69563;37.974;23.708;2023-09-07T00:48:49;26.10;58.90
80254;DHT22;69563;37.974;23.708;2023-09-07T00:51:15;26.10;58.90
80254;DHT22;69563;37.974;23.708;2023-09-07T00:53:41;26.10;58.90
80254;DHT22;69563;37.974;23.708;2023-09-07T00:56:07;26.00;58.80
80254;DHT22;69563;37.974;23.708;2023-09-07T00:58:33;26.10;58.90
80254;DHT22;69563;37.974;23.708;2023-09-07T01:00:59;26.10;58.80
80254;DHT22;69563;37.974;23.708;2023-09-07T01:03:26;26.10;58.80
80254;DHT22;69563;37.974;23.708;2023-09-07T01:08:24;26.10;58.80
80254;DHT22;69563;37.974;23.708;2023-09-07T01:10:51;26.10;58.80
80254;DHT22;69563;37.974;23.708;2023-09-07T01:13:18;26.10;58.70
80254;DHT22;69563;37.974;23.708;2023-09-07T01:15:44;26.10;58.70
80254;DHT22;69563;37.974;23.708;2023-09-07T01:18:11;26.10;58.70
80254;DHT22;69563;37.974;23.708;2023-09-07T01:20:40;26.10;58.70
80254;DHT22;69563;37.974;23.708;2023-09-07T01:23:07;26.10;58.60
80254;DHT22;69563;37.974;23.708;2023-09-07T01:25:34;26.10;58.70
80254;DHT22;69563;37.974;23.708;2023-09-07T01:28:00;26.10;58.60
80254;DHT22;69563;37.974;23.708;2023-09-07T01:30:29;26.10;58.70
80254;DHT22;69563;37.974;23.708;2023-09-07T01:32:55;26.10;58.70
80254;DHT22;69563;37.974;23.708;2023-09-07T01:35:21;26.10;58.60
80254;DHT22;69563;37.974;23.708;2023-09-07T01:37:48;26.10;58.60
80254;DHT22;69563;37.974;23.708;2023-09-07T01:40:14;26.10;58.60
80254;DHT22;69563;37.974;23.708;2023-09-07T01:42:40;26.10;58.50
80254;DHT22;69563;37.974;23.708;2023-09-07T01:45:06;26.10;59.50
80254;DHT22;69563;37.974;23.708;2023-09-07T01:47:32;26.10;58.50
80254;DHT22;69563;37.974;23.708;2023-09-07T01:49:58;26.10;58.50
80254;DHT22;69563;37.974;23.708;2023-09-07T01:52:24;26.10;58.50
80254;DHT22;69563;37.974;23.708;2023-09-07T01:54:50;26.10;58.50
80254;DHT22;69563;37.974;23.708;2023-09-07T01:57:16;26.10;58.50
80254;DHT22;69563;37.974;23.708;2023-09-07T01:59:41;26.10;58.50
80254;DHT22;69563;37.974;23.708;2023-09-07T02:02:07;26.10;58.50
80254;DHT22;69563;37.974;23.708;2023-09-07T02:04:33;26.00;58.40
80254;DHT22;69563;37.974;23.708;2023-09-07T02:06:59;26.00;58.50
80254;DHT22;69563;37.974;23.708;2023-09-07T02:09:25;26.00;58.40
80254;DHT22;69563;37.974;23.708;2023-09-07T02:11:51;26.10;58.40
80254;DHT22;69563;37.974;23.708;2023-09-07T02:14:16;26.10;58.40
80254;DHT22;69563;37.974;23.708;2023-09-07T02:16:42;26.10;58.40
80254;DHT22;69563;37.974;23.708;2023-09-07T02:19:08;26.10;58.30
80254;DHT22;69563;37.974;23.708;2023-09-07T02:21:34;26.10;58.30
80254;DHT22;69563;37.974;23.708;2023-09-07T02:24:00;26.10;58.30
80254;DHT22;69563;37.974;23.708;2023-09-07T02:26:26;26.10;58.30
80254;DHT22;69563;37.974;23.708;2023-09-07T02:28:51;26.10;58.30
80254;DHT22;69563;37.974;23.708;2023-09-07T02:31:17;26.10;58.30
80254;DHT22;69563;37.974;23.708;2023-09-07T02:33:43;26.10;58.30
80254;DHT22;69563;37.974;23.708;2023-09-07T02:36:09;26.10;58.30
80254;DHT22;69563;37.974;23.708;2023-09-07T02:38:35;26.00;58.20
80254;DHT22;69563;37.974;23.708;2023-09-07T02:41:01;26.10;58.30
80254;DHT22;69563;37.974;23.708;2023-09-07T02:43:28;26.10;58.20
80254;DHT22;69563;37.974;23.708;2023-09-07T02:45:53;26.10;58.20
80254;DHT22;69563;37.974;23.708;2023-09-07T02:48:19;26.10;58.20
80254;DHT22;69563;37.974;23.708;2023-09-07T02:50:47;26.10;58.20
80254;DHT22;69563;37.974;23.708;2023-09-07T02:53:15;26.10;58.10
80254;DHT22;69563;37.974;23.708;2023-09-07T02:55:41;26.10;58.10
80254;DHT22;69563;37.974;23.708;2023-09-07T02:58:06;26.10;58.10
80254;DHT22;69563;37.974;23.708;2023-09-07T03:00:32;26.10;58.10
80254;DHT22;69563;37.974;23.708;2023-09-07T03:03:00;26.10;58.10
80254;DHT22;69563;37.974;23.708;2023-09-07T03:05:29;26.10;58.10
80254;DHT22;69563;37.974;23.708;2023-09-07T03:07:55;26.10;58.10
80254;DHT22;69563;37.974;23.708;2023-09-07T03:10:21;26.10;58.10
80254;DHT22;69563;37.974;23.708;2023-09-07T03:12:46;26.10;58.10
80254;DHT22;69563;37.974;23.708;2023-09-07T03:15:12;26.10;58.10
80254;DHT22;69563;37.974;23.708;2023-09-07T03:17:38;26.10;58.00
80254;DHT22;69563;37.974;23.708;2023-09-07T03:20:05;26.10;58.00
80254;DHT22;69563;37.974;23.708;2023-09-07T03:22:44;26.10;57.90
80254;DHT22;69563;37.974;23.708;2023-09-07T03:25:10;26.10;57.90
80254;DHT22;69563;37.974;23.708;2023-09-07T03:27:37;26.10;57.90
80254;DHT22;69563;37.974;23.708;2023-09-07T03:30:04;26.10;57.90
80254;DHT22;69563;37.974;23.708;2023-09-07T03:32:31;26.10;57.90
80254;DHT22;69563;37.974;23.708;2023-09-07T03:34:59;26.10;57.80
80254;DHT22;69563;37.974;23.708;2023-09-07T03:37:27;26.10;57.90
80254;DHT22;69563;37.974;23.708;2023-09-07T03:39:54;26.10;58.80
80254;DHT22;69563;37.974;23.708;2023-09-07T03:42:20;26.10;57.80
80254;DHT22;69563;37.974;23.708;2023-09-07T03:44:46;26.10;57.80
80254;DHT22;69563;37.974;23.708;2023-09-07T03:47:14;26.10;57.80
80254;DHT22;69563;37.974;23.708;2023-09-07T03:49:40;26.10;57.70
80254;DHT22;69563;37.974;23.708;2023-09-07T03:52:06;26.10;57.70
80254;DHT22;69563;37.974;23.708;2023-09-07T03:54:31;26.10;57.70
80254;DHT22;69563;37.974;23.708;2023-09-07T03:56:57;26.10;57.70
80254;DHT22;69563;37.974;23.708;2023-09-07T03:59:23;26.20;57.70
80254;DHT22;69563;37.974;23.708;2023-09-07T04:01:49;26.20;57.70
80254;DHT22;69563;37.974;23.708;2023-09-07T04:04:15;26.10;57.60
80254;DHT22;69563;37.974;23.708;2023-09-07T04:06:41;26.10;57.70
80254;DHT22;69563;37.974;23.708;2023-09-07T04:09:07;26.10;57.60
80254;DHT22;69563;37.974;23.708;2023-09-07T04:11:33;26.10;57.60
80254;DHT22;69563;37.974;23.708;2023-09-07T04:13:59;26.20;57.70
80254;DHT22;69563;37.974;23.708;2023-09-07T04:16:25;26.20;57.60
80254;DHT22;69563;37.974;23.708;2023-09-07T04:18:51;26.20;57.60
80254;DHT22;69563;37.974;23.708;2023-09-07T04:21:17;26.20;57.50
80254;DHT22;69563;37.974;23.708;2023-09-07T04:23:43;26.20;57.40
80254;DHT22;69563;37.974;23.708;2023-09-07T04:26:10;26.20;57.40
80254;DHT22;69563;37.974;23.708;2023-09-07T04:28:37;26.20;57.40
80254;DHT22;69563;37.974;23.708;2023-09-07T04:31:05;26.20;57.40
80254;DHT22;69563;37.974;23.708;2023-09-07T04:33:32;26.20;57.40
80254;DHT22;69563;37.974;23.708;2023-09-07T04:36:10;26.20;57.40
80254;DHT22;69563;37.974;23.708;2023-09-07T04:38:36;26.20;57.30
80254;DHT22;69563;37.974;23.708;2023-09-07T04:41:20;26.20;57.30
80254;DHT22;69563;37.974;23.708;2023-09-07T04:43:46;26.20;57.20
80254;DHT22;69563;37.974;23.708;2023-09-07T04:46:13;26.20;57.10
80254;DHT22;69563;37.974;23.708;2023-09-07T04:48:40;26.20;57.00
80254;DHT22;69563;37.974;23.708;2023-09-07T04:51:08;26.20;56.90
80254;DHT22;69563;37.974;23.708;2023-09-07T04:53:37;26.20;56.80
80254;DHT22;69563;37.974;23.708;2023-09-07T04:56:04;26.20;56.80
80254;DHT22;69563;37.974;23.708;2023-09-07T04:58:30;26.20;56.90
80254;DHT22;69563;37.974;23.708;2023-09-07T05:01:07;26.20;57.20
80254;DHT22;69563;37.974;23.708;2023-09-07T05:03:34;26.20;57.50
80254;DHT22;69563;37.974;23.708;2023-09-07T05:06:01;26.20;57.70
80254;DHT22;69563;37.974;23.708;2023-09-07T05:08:28;26.20;57.80
80254;DHT22;69563;37.974;23.708;2023-09-07T05:10:59;26.20;58.10
80254;DHT22;69563;37.974;23.708;2023-09-07T05:13:26;26.30;59.20
80254;DHT22;69563;37.974;23.708;2023-09-07T05:15:53;26.20;58.20
80254;DHT22;69563;37.974;23.708;2023-09-07T05:18:19;26.20;58.10
80254;DHT22;69563;37.974;23.708;2023-09-07T05:20:45;26.20;58.10
80254;DHT22;69563;37.974;23.708;2023-09-07T05:23:15;26.20;58.20
80254;DHT22;69563;37.974;23.708;2023-09-07T05:25:43;26.10;57.90
80254;DHT22;69563;37.974;23.708;2023-09-07T05:28:10;26.10;57.90
80254;DHT22;69563;37.974;23.708;2023-09-07T05:30:35;26.10;57.90
80254;DHT22;69563;37.974;23.708;2023-09-07T05:33:01;26.10;57.80
80254;DHT22;69563;37.974;23.708;2023-09-07T05:35:27;26.10;57.70
80254;DHT22;69563;37.974;23.708;2023-09-07T05:37:54;26.00;56.80
80254;DHT22;69563;37.974;23.708;2023-09-07T05:40:20;26.00;57.40
80254;DHT22;69563;37.974;23.708;2023-09-07T05:42:46;26.00;57.30
80254;DHT22;69563;37.974;23.708;2023-09-07T05:45:12;26.10;57.40
80254;DHT22;69563;37.974;23.708;2023-09-07T05:47:38;26.00;57.30
80254;DHT22;69563;37.974;23.708;2023-09-07T05:50:04;26.00;57.20
80254;DHT22;69563;37.974;23.708;2023-09-07T05:52:30;26.00;57.20
80254;DHT22;69563;37.974;23.708;2023-09-07T05:54:56;26.00;57.10
80254;DHT22;69563;37.974;23.708;2023-09-07T05:57:22;26.00;57.20
80254;DHT22;69563;37.974;23.708;2023-09-07T05:59:48;26.00;57.10
80254;DHT22;69563;37.974;23.708;2023-09-07T06:02:14;26.00;57.10
80254;DHT22;69563;37.974;23.708;2023-09-07T06:04:40;26.00;57.10
80254;DHT22;69563;37.974;23.708;2023-09-07T06:07:05;26.10;57.10
80254;DHT22;69563;37.974;23.708;2023-09-07T06:09:31;26.00;57.00
80254;DHT22;69563;37.974;23.708;2023-09-07T06:11:57;26.00;57.00
80254;DHT22;69563;37.974;23.708;2023-09-07T06:14:23;26.00;56.90
80254;DHT22;69563;37.974;23.708;2023-09-07T06:16:49;26.00;56.90
80254;DHT22;69563;37.974;23.708;2023-09-07T06:19:15;26.10;57.00
80254;DHT22;69563;37.974;23.708;2023-09-07T06:21:41;26.10;57.00
80254;DHT22;69563;37.974;23.708;2023-09-07T06:24:07;26.00;56.90
80254;DHT22;69563;37.974;23.708;2023-09-07T06:26:33;26.10;56.90
80254;DHT22;69563;37.974;23.708;2023-09-07T06:28:59;26.00;56.80
80254;DHT22;69563;37.974;23.708;2023-09-07T06:31:25;26.10;56.90
80254;DHT22;69563;37.974;23.708;2023-09-07T06:33:50;26.00;56.80
80254;DHT22;69563;37.974;23.708;2023-09-07T06:36:16;26.10;56.80
80254;DHT22;69563;37.974;23.708;2023-09-07T06:38:42;26.10;56.80
80254;DHT22;69563;37.974;23.708;2023-09-07T06:41:08;26.10;56.70
80254;DHT22;69563;37.974;23.708;2023-09-07T06:43:35;26.00;56.60
80254;DHT22;69563;37.974;23.708;2023-09-07T06:46:09;26.10;56.70
80254;DHT22;69563;37.974;23.708;2023-09-07T06:48:35;26.10;56.70
80254;DHT22;69563;37.974;23.708;2023-09-07T06:51:05;26.10;56.70
80254;DHT22;69563;37.974;23.708;2023-09-07T06:53:32;26.10;56.60
80254;DHT22;69563;37.974;23.708;2023-09-07T06:56:04;26.10;56.50
80254;DHT22;69563;37.974;23.708;2023-09-07T06:58:31;26.10;56.40
80254;DHT22;69563;37.974;23.708;2023-09-07T07:00:59;26.10;56.30
80254;DHT22;69563;37.974;23.708;2023-09-07T07:03:28;26.20;56.30
80254;DHT22;69563;37.974;23.708;2023-09-07T07:05:55;26.20;56.20
80254;DHT22;69563;37.974;23.708;2023-09-07T07:08:23;26.20;56.10
80254;DHT22;69563;37.974;23.708;2023-09-07T07:10:49;26.20;56.00
80254;DHT22;69563;37.974;23.708;2023-09-07T07:13:15;26.20;56.10
80254;DHT22;69563;37.974;23.708;2023-09-07T07:15:41;26.20;56.00
80254;DHT22;69563;37.974;23.708;2023-09-07T07:18:07;26.30;56.10
80254;DHT22;69563;37.974;23.708;2023-09-07T07:20:42;26.30;55.90
80254;DHT22;69563;37.974;23.708;2023-09-07T07:23:11;26.40;55.90
80254;DHT22;69563;37.974;23.708;2023-09-07T07:25:38;26.40;56.10
80254;DHT22;69563;37.974;23.708;2023-09-07T07:28:04;26.50;56.60
80254;DHT22;69563;37.974;23.708;2023-09-07T07:30:35;26.50;56.90
80254;DHT22;69563;37.974;23.708;2023-09-07T07:33:02;26.50;57.10
80254;DHT22;69563;37.974;23.708;2023-09-07T07:35:32;26.50;57.70
80254;DHT22;69563;37.974;23.708;2023-09-07T07:37:58;26.50;57.50
80254;DHT22;69563;37.974;23.708;2023-09-07T07:40:24;26.60;57.80
80254;DHT22;69563;37.974;23.708;2023-09-07T07:42:51;26.60;57.80
80254;DHT22;69563;37.974;23.708;2023-09-07T07:45:18;26.70;57.80
80254;DHT22;69563;37.974;23.708;2023-09-07T07:47:46;26.70;57.90
80254;DHT22;69563;37.974;23.708;2023-09-07T07:50:12;26.70;58.20
80254;DHT22;69563;37.974;23.708;2023-09-07T07:52:38;26.70;58.20
80254;DHT22;69563;37.974;23.708;2023-09-07T07:55:04;26.70;58.50
80254;DHT22;69563;37.974;23.708;2023-09-07T07:57:31;26.70;58.50
80254;DHT22;69563;37.974;23.708;2023-09-07T07:59:57;26.80;58.60
80254;DHT22;69563;37.974;23.708;2023-09-07T08:02:23;26.80;58.30
80254;DHT22;69563;37.974;23.708;2023-09-07T08:04:49;26.80;58.10
80254;DHT22;69563;37.974;23.708;2023-09-07T08:07:15;26.80;58.20
80254;DHT22;69563;37.974;23.708;2023-09-07T08:09:41;26.90;58.10
80254;DHT22;69563;37.974;23.708;2023-09-07T08:12:07;26.90;58.10
80254;DHT22;69563;37.974;23.708;2023-09-07T08:14:32;26.80;58.20
80254;DHT22;69563;37.974;23.708;2023-09-07T08:16:59;26.80;58.20
80254;DHT22;69563;37.974;23.708;2023-09-07T08:19:25;26.80;58.20
80254;DHT22;69563;37.974;23.708;2023-09-07T08:21:53;26.80;58.50
80254;DHT22;69563;37.974;23.708;2023-09-07T08:24:19;26.90;58.40
80254;DHT22;69563;37.974;23.708;2023-09-07T08:26:45;26.90;58.20
80254;DHT22;69563;37.974;23.708;2023-09-07T08:29:10;26.90;58.20
80254;DHT22;69563;37.974;23.708;2023-09-07T08:31:40;26.90;58.10
80254;DHT22;69563;37.974;23.708;2023-09-07T08:34:07;26.90;58.10
80254;DHT22;69563;37.974;23.708;2023-09-07T08:36:37;27.00;58.00
80254;DHT22;69563;37.974;23.708;2023-09-07T08:39:04;27.00;57.80
80254;DHT22;69563;37.974;23.708;2023-09-07T08:41:39;27.00;57.70
80254;DHT22;69563;37.974;23.708;2023-09-07T08:44:10;27.00;57.60
80254;DHT22;69563;37.974;23.708;2023-09-07T08:46:40;27.00;57.50
80254;DHT22;69563;37.974;23.708;2023-09-07T08:49:07;27.00;57.60
80254;DHT22;69563;37.974;23.708;2023-09-07T08:51:35;27.00;57.70
80254;DHT22;69563;37.974;23.708;2023-09-07T08:54:03;27.00;57.50
80254;DHT22;69563;37.974;23.708;2023-09-07T08:56:29;27.00;57.30
80254;DHT22;69563;37.974;23.708;2023-09-07T08:58:55;27.00;57.20
80254;DHT22;69563;37.974;23.708;2023-09-07T09:01:21;27.00;57.30
80254;DHT22;69563;37.974;23.708;2023-09-07T09:03:51;27.00;57.50
80254;DHT22;69563;37.974;23.708;2023-09-07T09:06:19;27.00;57.80
80254;DHT22;69563;37.974;23.708;2023-09-07T09:08:47;27.00;57.90
80254;DHT22;69563;37.974;23.708;2023-09-07T09:11:17;27.00;57.70
80254;DHT22;69563;37.974;23.708;2023-09-07T09:13:44;27.00;57.80
80254;DHT22;69563;37.974;23.708;2023-09-07T09:16:11;26.90;58.00
80254;DHT22;69563;37.974;23.708;2023-09-07T09:18:47;26.90;57.90
80254;DHT22;69563;37.974;23.708;2023-09-07T09:21:14;26.90;58.10
80254;DHT22;69563;37.974;23.708;2023-09-07T09:23:41;26.90;58.60
80254;DHT22;69563;37.974;23.708;2023-09-07T09:26:07;26.90;58.60
80254;DHT22;69563;37.974;23.708;2023-09-07T09:28:34;27.00;58.50
80254;DHT22;69563;37.974;23.708;2023-09-07T09:31:01;27.00;58.20
80254;DHT22;69563;37.974;23.708;2023-09-07T09:33:31;27.10;58.10
80254;DHT22;69563;37.974;23.708;2023-09-07T09:35:57;27.10;57.80
80254;DHT22;69563;37.974;23.708;2023-09-07T09:38:24;27.10;57.50
80254;DHT22;69563;37.974;23.708;2023-09-07T09:40:51;27.10;57.40
80254;DHT22;69563;37.974;23.708;2023-09-07T09:43:19;27.20;57.40
80254;DHT22;69563;37.974;23.708;2023-09-07T09:45:46;27.20;57.20
80254;DHT22;69563;37.974;23.708;2023-09-07T09:48:12;27.10;57.10
80254;DHT22;69563;37.974;23.708;2023-09-07T09:50:40;27.10;57.20
80254;DHT22;69563;37.974;23.708;2023-09-07T09:53:06;27.10;57.70
80254;DHT22;69563;37.974;23.708;2023-09-07T09:55:33;27.10;57.60
80254;DHT22;69563;37.974;23.708;2023-09-07T09:57:59;27.10;57.60
80254;DHT22;69563;37.974;23.708;2023-09-07T10:00:26;27.10;57.40
80254;DHT22;69563;37.974;23.708;2023-09-07T10:03:13;27.10;57.40
80254;DHT22;69563;37.974;23.708;2023-09-07T10:05:40;27.10;57.40
80254;DHT22;69563;37.974;23.708;2023-09-07T10:08:13;27.10;57.20
80254;DHT22;69563;37.974;23.708;2023-09-07T10:10:41;27.20;57.20
80254;DHT22;69563;37.974;23.708;2023-09-07T10:13:07;27.10;57.00
80254;DHT22;69563;37.974;23.708;2023-09-07T10:15:36;27.10;57.10
80254;DHT22;69563;37.974;23.708;2023-09-07T10:18:15;27.10;57.00
80254;DHT22;69563;37.974;23.708;2023-09-07T10:20:57;27.10;57.00
80254;DHT22;69563;37.974;23.708;2023-09-07T10:23:34;27.00;57.00
80254;DHT22;69563;37.974;23.708;2023-09-07T10:26:02;27.00;57.00
80254;DHT22;69563;37.974;23.708;2023-09-07T10:28:30;26.90;57.20
80254;DHT22;69563;37.974;23.708;2023-09-07T10:33:30;27.00;57.30
80254;DHT22;69563;37.974;23.708;2023-09-07T10:35:56;27.00;57.10
80254;DHT22;69563;37.974;23.708;2023-09-07T10:38:23;27.10;57.00
80254;DHT22;69563;37.974;23.708;2023-09-07T10:40:58;27.10;57.10
80254;DHT22;69563;37.974;23.708;2023-09-07T10:43:28;27.10;57.00
80254;DHT22;69563;37.974;23.708;2023-09-07T10:45:56;27.10;57.40
80254;DHT22;69563;37.974;23.708;2023-09-07T10:48:28;27.00;57.40
80254;DHT22;69563;37.974;23.708;2023-09-07T10:50:54;27.00;57.40
80254;DHT22;69563;37.974;23.708;2023-09-07T10:53:27;27.10;57.50
80254;DHT22;69563;37.974;23.708;2023-09-07T10:55:54;27.20;57.30
80254;DHT22;69563;37.974;23.708;2023-09-07T10:58:31;27.20;57.10
80254;DHT22;69563;37.974;23.708;2023-09-07T11:00:59;27.20;57.00
80254;DHT22;69563;37.974;23.708;2023-09-07T11:03:27;27.20;56.90
80254;DHT22;69563;37.974;23.708;2023-09-07T11:08:34;27.20;56.60
80254;DHT22;69563;37.974;23.708;2023-09-07T11:11:01;27.20;56.60
80254;DHT22;69563;37.974;23.708;2023-09-07T11:13:28;27.20;56.50
80254;DHT22;69563;37.974;23.708;2023-09-07T11:15:56;27.20;56.30
80254;DHT22;69563;37.974;23.708;2023-09-07T11:18:25;27.20;56.30
80254;DHT22;69563;37.974;23.708;2023-09-07T11:20:51;27.20;56.30
80254;DHT22;69563;37.974;23.708;2023-09-07T11:23:19;27.30;56.30
80254;DHT22;69563;37.974;23.708;2023-09-07T11:25:47;27.30;56.40
80254;DHT22;69563;37.974;23.708;2023-09-07T11:28:16;27.20;56.70
80254;DHT22;69563;37.974;23.708;2023-09-07T11:30:53;27.20;56.70
80254;DHT22;69563;37.974;23.708;2023-09-07T11:33:20;27.20;56.80
80254;DHT22;69563;37.974;23.708;2023-09-07T11:35:46;27.20;56.80
80254;DHT22;69563;37.974;23.708;2023-09-07T11:38:14;27.20;56.70
80254;DHT22;69563;37.974;23.708;2023-09-07T11:40:40;27.20;56.50
80254;DHT22;69563;37.974;23.708;2023-09-07T11:43:13;27.30;56.30
80254;DHT22;69563;37.974;23.708;2023-09-07T11:45:46;27.30;56.20
80254;DHT22;69563;37.974;23.708;2023-09-07T11:48:12;27.30;56.10
80254;DHT22;69563;37.974;23.708;2023-09-07T11:50:39;27.30;56.00
80254;DHT22;69563;37.974;23.708;2023-09-07T11:53:06;27.40;56.00
80254;DHT22;69563;37.974;23.708;2023-09-07T11:55:32;27.40;56.00
80254;DHT22;69563;37.974;23.708;2023-09-07T11:57:58;27.30;56.30
80254;DHT22;69563;37.974;23.708;2023-09-07T12:00:24;27.40;56.20
80254;DHT22;69563;37.974;23.708;2023-09-07T12:02:50;27.40;56.10
80254;DHT22;69563;37.974;23.708;2023-09-07T12:05:16;27.40;56.00
80254;DHT22;69563;37.974;23.708;2023-09-07T12:07:43;27.40;56.10
80254;DHT22;69563;37.974;23.708;2023-09-07T12:10:09;27.40;55.90
80254;DHT22;69563;37.974;23.708;2023-09-07T12:12:42;27.50;55.80
80254;DHT22;69563;37.974;23.708;2023-09-07T12:15:10;27.50;55.70
80254;DHT22;69563;37.974;23.708;2023-09-07T12:17:39;27.50;55.50
80254;DHT22;69563;37.974;23.708;2023-09-07T12:20:05;27.50;55.50
80254;DHT22;69563;37.974;23.708;2023-09-07T12:22:36;27.50;55.20
80254;DHT22;69563;37.974;23.708;2023-09-07T12:25:06;27.60;55.10
80254;DHT22;69563;37.974;23.708;2023-09-07T12:27:35;27.60;55.00
80254;DHT22;69563;37.974;23.708;2023-09-07T12:30:02;27.50;55.00
80254;DHT22;69563;37.974;23.708;2023-09-07T12:32:32;27.60;55.00
80254;DHT22;69563;37.974;23.708;2023-09-07T12:34:59;27.60;54.80
80254;DHT22;69563;37.974;23.708;2023-09-07T12:37:25;27.60;54.80
80254;DHT22;69563;37.974;23.708;2023-09-07T12:39:51;27.60;54.70
80254;DHT22;69563;37.974;23.708;2023-09-07T12:42:17;27.60;54.60
80254;DHT22;69563;37.974;23.708;2023-09-07T12:44:44;27.60;54.50
80254;DHT22;69563;37.974;23.708;2023-09-07T12:47:10;27.60;54.40
80254;DHT22;69563;37.974;23.708;2023-09-07T12:49:36;27.60;54.30
80254;DHT22;69563;37.974;23.708;2023-09-07T12:52:01;27.60;54.20
80254;DHT22;69563;37.974;23.708;2023-09-07T12:54:34;27.70;54.10
80254;DHT22;69563;37.974;23.708;2023-09-07T12:57:01;27.70;54.00
80254;DHT22;69563;37.974;23.708;2023-09-07T12:59:28;27.70;53.80
80254;DHT22;69563;37.974;23.708;2023-09-07T13:01:54;27.70;53.70
80254;DHT22;69563;37.974;23.708;2023-09-07T13:04:21;27.70;53.70
80254;DHT22;69563;37.974;23.708;2023-09-07T13:06:47;27.60;53.50
80254;DHT22;69563;37.974;23.708;2023-09-07T13:09:13;27.70;53.60
80254;DHT22;69563;37.974;23.708;2023-09-07T13:11:39;27.60;53.50
80254;DHT22;69563;37.974;23.708;2023-09-07T13:14:06;27.60;53.50
80254;DHT22;69563;37.974;23.708;2023-09-07T13:16:34;27.60;53.50
80254;DHT22;69563;37.974;23.708;2023-09-07T13:18:59;27.60;53.70
80254;DHT22;69563;37.974;23.708;2023-09-07T13:21:25;27.60;53.60
80254;DHT22;69563;37.974;23.708;2023-09-07T13:23:51;27.60;53.60
80254;DHT22;69563;37.974;23.708;2023-09-07T13:26:17;27.60;53.70
80254;DHT22;69563;37.974;23.708;2023-09-07T13:28:43;27.60;53.90
80254;DHT22;69563;37.974;23.708;2023-09-07T13:31:09;27.60;54.00
80254;DHT22;69563;37.974;23.708;2023-09-07T13:33:34;27.60;54.00
80254;DHT22;69563;37.974;23.708;2023-09-07T13:36:00;27.60;54.00
80254;DHT22;69563;37.974;23.708;2023-09-07T13:38:27;27.60;54.00
80254;DHT22;69563;37.974;23.708;2023-09-07T13:40:52;27.60;53.90
80254;DHT22;69563;37.974;23.708;2023-09-07T13:43:18;27.60;53.90
80254;DHT22;69563;37.974;23.708;2023-09-07T13:45:44;27.60;53.80
80254;DHT22;69563;37.974;23.708;2023-09-07T13:48:10;27.60;53.80
80254;DHT22;69563;37.974;23.708;2023-09-07T13:50:36;27.60;53.80
80254;DHT22;69563;37.974;23.708;2023-09-07T13:53:02;27.60;53.80
80254;DHT22;69563;37.974;23.708;2023-09-07T13:55:28;27.60;53.70
80254;DHT22;69563;37.974;23.708;2023-09-07T13:57:54;27.60;53.60
80254;DHT22;69563;37.974;23.708;2023-09-07T14:00:19;27.60;53.40
80254;DHT22;69563;37.974;23.708;2023-09-07T14:02:45;27.60;53.40
80254;DHT22;69563;37.974;23.708;2023-09-07T14:05:11;27.60;53.20
80254;DHT22;69563;37.974;23.708;2023-09-07T14:07:37;27.60;53.20
80254;DHT22;69563;37.974;23.708;2023-09-07T14:10:03;27.60;53.10
80254;DHT22;69563;37.974;23.708;2023-09-07T14:12:29;27.60;53.00
80254;DHT22;69563;37.974;23.708;2023-09-07T14:14:55;27.60;52.90
80254;DHT22;69563;37.974;23.708;2023-09-07T14:17:21;27.60;52.80
80254;DHT22;69563;37.974;23.708;2023-09-07T14:19:47;27.60;52.70
80254;DHT22;69563;37.974;23.708;2023-09-07T14:22:13;27.60;52.70
80254;DHT22;69563;37.974;23.708;2023-09-07T14:24:38;27.60;52.70
80254;DHT22;69563;37.974;23.708;2023-09-07T14:27:04;27.60;52.70
80254;DHT22;69563;37.974;23.708;2023-09-07T14:29:30;27.50;52.90
80254;DHT22;69563;37.974;23.708;2023-09-07T14:31:56;27.40;53.20
80254;DHT22;69563;37.974;23.708;2023-09-07T14:34:22;27.40;53.30
80254;DHT22;69563;37.974;23.708;2023-09-07T14:36:49;27.40;53.50
80254;DHT22;69563;37.974;23.708;2023-09-07T14:39:14;27.40;53.70
80254;DHT22;69563;37.974;23.708;2023-09-07T14:41:41;27.40;54.00
80254;DHT22;69563;37.974;23.708;2023-09-07T14:44:09;27.40;54.10
80254;DHT22;69563;37.974;23.708;2023-09-07T14:46:36;27.40;54.00
80254;DHT22;69563;37.974;23.708;2023-09-07T14:49:02;27.40;54.00
80254;DHT22;69563;37.974;23.708;2023-09-07T14:51:27;27.30;54.10
80254;DHT22;69563;37.974;23.708;2023-09-07T14:53:53;27.30;54.10
80254;DHT22;69563;37.974;23.708;2023-09-07T14:56:19;27.30;54.10
80254;DHT22;69563;37.974;23.708;2023-09-07T14:58:45;27.30;54.10
80254;DHT22;69563;37.974;23.708;2023-09-07T15:01:11;27.30;54.10
80254;DHT22;69563;37.974;23.708;2023-09-07T15:03:37;27.40;54.10
80254;DHT22;69563;37.974;23.708;2023-09-07T15:06:06;27.30;54.10
80254;DHT22;69563;37.974;23.708;2023-09-07T15:08:33;27.30;54.40
80254;DHT22;69563;37.974;23.708;2023-09-07T15:10:59;27.20;54.60
80254;DHT22;69563;37.974;23.708;2023-09-07T15:13:25;27.20;54.50
80254;DHT22;69563;37.974;23.708;2023-09-07T15:15:51;27.30;54.60
80254;DHT22;69563;37.974;23.708;2023-09-07T15:18:17;27.20;54.60
80254;DHT22;69563;37.974;23.708;2023-09-07T15:20:43;27.20;54.70